Terminal Aerodrome Forecast
Issued by NWS Northern Indiana

Home | Current Version | Previous Version | Graphics & Text | Print | Product List | Glossary On
Versions: 1 2 3 4 5 6 7 8 9 10 11 12 13 14 15
000
FTUS43 KIWX 022300
TAFFWA
TAF
KFWA 022338Z 0300/0324 VRB03KT P6SM SCT120 BKN250
     FM031000 13012KT 3SM -SN OVC080
     FM031300 15013KT 2SM -SNPL BR OVC015
     FM031600 17015KT 1SM -FZRA BR OVC006 WS020/20035KT
     FM032000 21016G23KT 1SM -RA BR OVC015 WS020/23050KT=

USA.gov is the U.S. government's official web portal to all federal, state and local government web resources and services.